Latest Weather Observations for Mount Read

IDT60801

Issued at 5:11 pm EST Saturday 20 July 2024 (issued every 10 minutes, with the page automatically refreshed every 10 minutes)

About weather observations | Map of weather stations | Latest weather observations for TAS | Other Formats
Station Details ID: 097085 Name: MOUNT READ Lat: -41.84 Lon: 145.54 Height: 1119.5 m
Data from the previous 72 hours. | See also: Recent months at Mount Read
Date/Time
EST
Temp
°C
App
Temp
°C
Dew
Point
°C
Rel
Hum
%
Delta-T
°C
Wind Press
QNH
hPa
Press
MSL
hPa
Rain since
9am
mm
Dir  Spd
km/h
Gust
km/h
Spd
kts
Gust
kts
20/05:00pm 2.1 -7.9 2.1 100 0.0 S 44 52 24 28 998.8 1000.6 2.8
20/04:30pm 2.1 -7.7 2.1 100 0.0 SSW 43 50 23 27 997.8 999.6 2.6
20/04:00pm 2.2 -7.6 2.2 100 0.0 SSW 43 48 23 26 996.9 998.7 2.6
20/03:30pm 2.3 -6.4 2.3 100 0.0 S 37 46 20 25 996.1 997.9 2.0
20/03:00pm 2.4 -6.2 2.4 100 0.0 S 37 43 20 23 995.1 996.9 1.6
20/02:30pm 2.4 -6.2 2.4 100 0.0 S 37 44 20 24 994.4 996.1 1.6
20/02:00pm 2.6 -5.2 2.6 100 0.0 S 33 41 18 22 993.8 995.5 1.6
20/01:30pm 2.2 -5.5 2.2 100 0.0 SSE 32 41 17 22 993.1 994.8 1.2
20/01:00pm 2.3 -4.3 2.3 100 0.0 SSE 26 33 14 18 992.8 994.4 1.2
20/12:30pm 2.4 -3.8 2.3 99 0.0 SE 24 33 13 18 992.2 993.9 1.2
20/12:00pm 2.0 -5.4 1.6 97 0.2 ESE 30 41 16 22 991.8 993.4 1.0
20/11:30am 1.8 -6.6 1.7 99 0.0 ESE 35 46 19 25 991.4 993.0 1.0
20/11:00am 1.5 -8.4 1.5 100 0.0 ESE 43 57 23 31 990.9 992.5 0.8
20/10:30am 1.3 -8.7 1.3 100 0.0 ESE 43 54 23 29 990.3 991.9 0.8
20/10:00am 1.2 -9.0 1.2 100 0.0 ESE 44 54 24 29 989.8 991.4 0.6
20/09:30am 1.0 -10.0 1.0 100 0.0 E 48 61 26 33 989.1 990.7 0.4
20/09:00am 1.0 -9.2 1.0 100 0.0 E 44 54 24 29 988.6 990.1 25.8
20/08:30am 1.0 -10.3 1.0 100 0.0 E 50 61 27 33 988.1 989.6 25.6
20/08:00am 0.9 -9.3 0.9 100 0.0 E 44 54 24 29 987.7 989.2 25.6
20/07:30am 1.1 -8.9 1.1 100 0.0 ENE 43 50 23 27 987.3 988.8 25.6
20/07:00am 1.0 -8.6 1.0 100 0.0 ENE 41 50 22 27 987.1 988.6 25.4
20/06:30am 1.0 -6.9 1.0 100 0.0 E 32 41 17 22 987.2 988.7 25.2
20/06:00am 1.0 -8.2 1.0 100 0.0 E 39 44 21 24 987.0 988.5 25.2
20/05:30am 1.0 -9.0 1.0 100 0.0 E 43 48 23 26 986.9 988.4 25.2
20/05:00am 0.9 -6.6 0.9 100 0.0 ENE 30 46 16 25 987.3 988.8 25.2
20/04:30am 1.1 -6.0 1.1 100 0.0 ENE 28 35 15 19 987.4 988.9 25.2
20/04:00am 1.4 -7.0 1.4 100 0.0 ENE 35 44 19 24 987.7 989.2 25.2
20/03:30am 1.8 -5.6 1.8 100 0.0 ENE 30 41 16 22 988.2 989.7 25.2
20/03:00am 1.7 -4.2 1.7 100 0.0 NE 22 28 12 15 988.9 990.4 25.0
20/02:30am 1.8 -6.0 1.8 100 0.0 NE 32 41 17 22 989.2 990.8 25.0
20/02:00am 2.1 -4.9 2.1 100 0.0 NE 28 41 15 22 989.8 991.4 25.0
20/01:30am 2.3 -4.6 2.3 100 0.0 NE 28 35 15 19 990.1 991.7 24.8
20/01:00am 2.4 -3.4 2.4 100 0.0 NNE 22 30 12 16 990.6 992.2 24.8
20/12:30am 2.3 -4.3 2.3 100 0.0 NNE 26 32 14 17 991.1 992.7 24.6
20/12:00am 2.4 -4.5 2.4 100 0.0 N 28 33 15 18 991.5 993.1 24.6
 
Date/Time
EST
Temp
°C
App
Temp
°C
Dew
Point
°C
Rel
Hum
%
Delta-T
°C
Wind Press
QNH
hPa
Press
MSL
hPa
Rain since
9am
mm
Dir  Spd
km/h
Gust
km/h
Spd
kts
Gust
kts
19/11:30pm 2.4 -4.9 2.4 100 0.0 N 30 35 16 19 992.2 993.9 24.6
19/11:00pm 2.3 -4.6 2.3 100 0.0 N 28 33 15 18 992.8 994.4 24.6
19/10:30pm 2.2 -4.8 2.2 100 0.0 N 28 32 15 17 993.2 994.9 24.6
19/10:00pm 2.1 -4.5 2.1 100 0.0 N 26 32 14 17 993.4 995.0 24.4
19/09:30pm 2.0 -3.5 2.0 100 0.0 N 20 24 11 13 993.7 995.4 24.4
19/09:00pm 1.8 -3.1 1.8 100 0.0 N 17 20 9 11 993.7 995.4 24.4
19/08:30pm 1.4 -4.0 1.4 100 0.0 NNW 19 22 10 12 993.8 995.5 24.4
19/08:00pm 1.6 -3.9 1.6 100 0.0 NNW 20 22 11 12 994.1 995.8 24.4
19/07:30pm 1.3 -4.1 1.3 100 0.0 NW 19 28 10 15 994.9 996.6 24.4
19/07:00pm 1.7 -3.6 1.7 100 0.0 WNW 19 24 10 13 995.0 996.7 24.2
19/06:30pm 1.6 -4.3 1.6 100 0.0 W 22 28 12 15 995.0 996.7 24.2
19/06:00pm 2.3 -3.1 2.3 100 0.0 W 20 32 11 17 995.3 997.0 24.0
19/05:30pm 2.4 -3.8 2.4 100 0.0 WNW 24 33 13 18 995.0 996.7 22.8
19/05:00pm 2.4 -3.8 2.4 100 0.0 W 24 32 13 17 994.7 996.4 21.6
19/04:30pm 2.6 -1.8 2.6 100 0.0 WNW 15 28 8 15 994.8 996.5 20.8
19/04:00pm 2.9 -4.3 2.9 100 0.0 NNW 30 46 16 25 994.6 996.3 18.4
19/03:30pm 2.9 -3.9 2.9 100 0.0 NNW 28 50 15 27 994.5 996.2 17.0
19/03:03pm 2.9 -4.9 2.9 100 0.0 NNW 33 54 18 29 994.7 996.4 16.2
19/03:00pm 2.9 -5.3 2.9 100 0.0 NNW 35 54 19 29 994.7 996.4 15.8
19/02:30pm 2.8 -6.5 2.8 100 0.0 NNW 41 61 22 33 994.0 995.7 12.8
19/02:25pm 2.8 -6.1 2.8 100 0.0 NNW 39 57 21 31 994.0 995.7 12.8
19/02:00pm 2.6 -7.3 2.6 100 0.0 NNW 44 59 24 32 993.9 995.6 11.2
19/01:39pm 2.5 -7.4 2.5 100 0.0 N 44 65 24 35 994.3 995.9 11.0
19/01:30pm 2.4 -7.6 2.4 100 0.0 N 44 63 24 34 994.6 996.3 10.6
19/01:20pm 2.3 -8.1 2.3 100 0.0 N 46 70 25 38 994.5 996.2 9.8
19/01:00pm 2.1 -7.9 2.1 100 0.0 N 44 61 24 33 994.4 996.1 9.6
19/12:30pm 1.7 -8.4 1.7 100 0.0 N 44 63 24 34 995.4 997.1 9.4
19/12:19pm 1.6 -8.3 1.6 100 0.0 N 43 67 23 36 995.8 997.5 9.4
19/12:00pm 1.6 -7.9 1.6 100 0.0 N 41 59 22 32 996.3 998.0 9.2
19/11:30am 1.3 -10.4 1.3 100 0.0 N 52 74 28 40 997.0 998.8 8.4
19/11:00am 1.6 -8.9 1.6 100 0.0 N 46 67 25 36 997.6 999.4 6.4
19/10:30am 1.6 -9.3 1.6 100 0.0 N 48 76 26 41 998.2 1000.0 4.8
19/10:27am 1.6 -8.9 1.6 100 0.0 N 46 67 25 36 998.3 1000.1 4.8
19/10:00am 1.4 -8.5 1.4 100 0.0 N 43 57 23 31 998.6 1000.4 3.8
19/09:30am 1.1 -7.7 1.1 100 0.0 N 37 56 20 30 999.2 1001.0 0.0
19/09:24am 1.1 -6.0 1.1 100 0.0 N 28 54 15 29 999.2 1001.0 0.0
19/09:00am 0.8 -4.7 0.8 100 0.0 N 19 20 10 11 999.6 1001.4 5.0
19/08:30am 0.6 -4.9 0.6 100 0.0 N 19 20 10 11 1000.2 1002.0 5.0
19/08:00am 0.7 -4.8 0.7 100 0.0 N 19 20 10 11 1000.4 1002.2 5.0
19/07:30am 0.6 -1.7 0.6 100 0.0 SSW 2 15 1 8 1000.9 1002.8 5.0
19/07:00am 0.3 -1.6 0.3 100 0.0 CALM 0 0 0 0 1001.7 1003.6 5.0
19/06:30am 0.3 -1.6 0.3 100 0.0 CALM 0 0 0 0 1002.1 1004.0 5.0
19/06:00am 0.0 -2.0 0.0 100 0.0 CALM 0 0 0 0 1002.4 1004.3 5.0
19/05:30am 0.2 -1.8 0.2 100 0.0 CALM 0 0 0 0 1003.1 1005.0 5.0
19/05:00am -0.1 -2.1 -0.1 100 0.0 CALM 0 0 0 0 1003.3 1005.2 5.0
19/04:30am -0.1 -2.1 -0.1 100 0.0 CALM 0 0 0 0 1003.6 1005.6 5.0
19/04:00am -0.3 -2.3 -0.3 100 0.0 CALM 0 0 0 0 1004.1 1006.0 5.0
19/03:30am -0.6 -2.7 -0.6 100 0.0 CALM 0 0 0 0 1004.6 1006.6 5.0
19/03:00am -0.9 -3.0 -0.9 100 0.0 CALM 0 0 0 0 1004.3 1006.3 5.0
19/02:30am -1.0 -3.1 -1.0 100 0.0 CALM 0 0 0 0 1004.4 1006.4 5.0
19/02:00am -0.9 -3.0 -0.9 100 0.0 CALM 0 0 0 0 1004.4 1006.4 5.0
19/01:30am -1.5 -3.7 -1.5 100 0.0 CALM 0 0 0 0 1005.1 1007.1 5.0
19/01:00am -1.6 -3.8 -1.6 100 0.0 CALM 0 0 0 0 1006.0 1008.0 5.0
19/12:30am -1.6 -3.8 -1.6 100 0.0 CALM 0 0 0 0 1006.4 1008.4 5.0
19/12:00am -1.7 -3.9 -1.8 99 0.0 CALM 0 0 0 0 1006.7 1008.8 5.0
 
Date/Time
EST
Temp
°C
App
Temp
°C
Dew
Point
°C
Rel
Hum
%
Delta-T
°C
Wind Press
QNH
hPa
Press
MSL
hPa
Rain since
9am
mm
Dir  Spd
km/h
Gust
km/h
Spd
kts
Gust
kts
18/11:30pm -1.8 -4.0 -1.9 99 -0.1 CALM 0 0 0 0 1007.3 1009.4 5.0
18/11:00pm -1.8 -4.0 -1.9 99 -0.1 CALM 0 0 0 0 1007.6 1009.7 5.0
18/10:30pm -1.8 -4.0 -1.9 99 -0.1 CALM 0 0 0 0 1008.0 1010.0 5.0
18/10:00pm -2.0 -4.3 -2.1 99 -0.1 CALM 0 0 0 0 1008.1 1010.2 5.0
18/09:30pm -1.4 -3.6 -1.5 99 0.0 CALM 0 0 0 0 1008.3 1010.4 5.0
18/09:00pm -1.5 -3.7 -1.6 99 0.0 CALM 0 0 0 0 1008.0 1010.0 5.0
18/08:30pm -1.3 -3.5 -1.3 100 0.0 CALM 0 0 0 0 1007.9 1009.9 5.0
18/08:00pm -1.2 -3.4 -1.2 100 0.0 CALM 0 0 0 0 1008.2 1010.3 5.0
18/07:30pm -1.2 -3.4 -1.2 100 0.0 CALM 0 0 0 0 1008.6 1010.7 5.0
18/07:00pm -1.4 -3.6 -1.4 100 0.0 CALM 0 0 0 0 1008.6 1010.7 5.0
18/06:30pm -1.3 -3.5 -1.3 100 0.0 CALM 0 0 0 0 1008.4 1010.5 5.0
18/06:00pm -1.4 -3.6 -1.4 100 0.0 CALM 0 0 0 0 1008.5 1010.6 5.0
18/05:30pm -1.5 -3.7 -1.5 100 0.0 CALM 0 0 0 0 1008.3 1010.4 5.0
18/05:00pm -1.0 -3.1 -1.0 100 0.0 CALM 0 0 0 0 1007.5 1009.6 5.0
18/04:30pm -0.9 -3.0 -0.9 100 0.0 CALM 0 0 0 0 1008.0 1010.0 5.0
18/04:00pm -0.6 -2.7 -0.6 100 0.0 CALM 0 0 0 0 1008.2 1010.3 4.8
18/03:30pm -0.5 -2.6 -0.5 100 0.0 CALM 0 0 0 0 1008.4 1010.5 4.6
18/03:00pm -0.3 -2.3 -0.3 100 0.0 CALM 0 0 0 0 1008.3 1010.4 4.4
18/02:30pm -0.1 -2.1 -0.1 100 0.0 CALM 0 15 0 8 1008.1 1010.2 4.4
18/02:00pm -0.1 -2.1 -0.1 100 0.0 CALM 0 4 0 2 1008.2 1010.3 3.8
18/01:30pm -0.2 -4.7 -0.2 100 0.0 S 13 17 7 9 1008.1 1010.2 3.6
18/01:00pm -0.2 -5.4 -0.2 100 0.0 S 17 20 9 11 1008.0 1010.0 3.4
18/12:30pm -0.4 -5.7 -0.4 100 0.0 S 17 22 9 12 1008.3 1010.4 3.0
18/12:00pm -0.6 -5.9 -0.6 100 0.0 S 17 20 9 11 1008.6 1010.7 2.8
18/11:30am -0.8 -6.7 -0.8 100 0.0 S 20 24 11 13 1008.8 1010.8 2.6
18/11:00am -0.8 -6.7 -0.8 100 0.0 S 20 24 11 13 1009.4 1011.5 0.0
18/10:30am -0.9 -7.2 -0.9 100 0.0 S 22 26 12 14 1009.6 1011.8 0.0
18/10:00am -0.9 -7.2 -0.9 100 0.0 S 22 26 12 14 1010.0 1012.1 0.0
18/09:30am -1.1 -7.0 -1.1 100 0.0 S 20 26 11 14 1010.0 1012.1 0.0
18/09:00am -1.1 -7.0 -1.1 100 0.0 S 20 24 11 13 1009.8 1011.9 0.0
18/08:30am -1.2 -7.9 -1.2 100 0.0 S 24 26 13 14 1009.4 1011.5 0.0
18/08:00am -1.3 -8.0 -1.3 100 0.0 S 24 28 13 15 1009.3 1011.4 0.0
18/07:30am -1.3 -8.8 -1.3 100 0.0 S 28 33 15 18 1009.1 1011.2 0.0
18/07:00am -1.3 -8.4 -1.3 100 0.0 S 26 33 14 18 1009.1 1011.2 0.0
18/06:30am -1.4 -9.3 -1.4 100 0.0 S 30 33 16 18 1008.9 1011.0 0.0
18/06:00am -1.2 -9.1 -1.2 100 0.0 S 30 35 16 19 1008.6 1010.7 0.0
18/05:30am -1.1 -8.9 -1.1 100 0.0 S 30 35 16 19 1008.8 1010.8 0.0
18/05:00am -1.1 -9.3 -1.1 100 0.0 S 32 39 17 21 1008.6 1010.7 0.0
18/04:30am -1.0 -9.2 -1.0 100 0.0 S 32 37 17 20 1009.0 1011.1 0.0
18/04:00am -1.0 -8.4 -1.0 100 0.0 S 28 35 15 19 1009.1 1011.2 0.0
18/03:30am -0.9 -9.3 -0.9 100 0.0 S 33 43 18 23 1009.0 1011.1 0.0
18/03:00am -1.0 -9.4 -1.0 100 0.0 S 33 39 18 21 1009.1 1011.2 0.0
18/02:30am -1.0 -8.8 -1.0 100 0.0 S 30 39 16 21 1009.3 1011.4 0.0
18/02:00am -1.1 -9.9 -1.1 100 0.0 SSE 35 41 19 22 1009.2 1011.3 0.0
18/01:30am -1.2 -9.4 -1.2 100 0.0 S 32 39 17 21 1009.3 1011.4 0.0
18/01:00am -1.4 -9.8 -1.4 100 0.0 S 33 39 18 21 1009.4 1011.5 0.0
18/12:30am -1.4 -10.2 -1.4 100 0.0 S 35 41 19 22 1009.8 1011.9 0.0
18/12:00am -1.6 -10.8 -1.6 100 0.0 S 37 39 20 21 1009.8 1011.9 0.0
 
Date/Time
EST
Temp
°C
App
Temp
°C
Dew
Point
°C
Rel
Hum
%
Delta-T
°C
Wind Press
QNH
hPa
Press
MSL
hPa
Rain since
9am
mm
Dir  Spd
km/h
Gust
km/h
Spd
kts
Gust
kts
17/11:30pm -1.7 -11.3 -1.7 100 0.0 S 39 44 21 24 1010.0 1012.1 0.0
17/11:00pm -1.8 -11.4 -1.8 100 0.0 S 39 46 21 25 1010.0 1012.1 0.0
17/10:30pm -2.1 -11.8 -2.2 99 -0.1 S 39 43 21 23 1010.2 1012.3 0.0
17/10:00pm -2.2 -11.9 -2.5 98 0.0 S 39 43 21 23 1010.1 1012.2 0.0
17/09:30pm -2.1 -12.2 -2.5 97 0.0 S 41 48 22 26 1010.0 1012.1 0.0
17/09:00pm -2.3 -10.3 -2.7 97 0.0 S 30 33 16 18 1010.2 1012.3 0.0
17/08:30pm -2.0 -10.0 -2.1 99 -0.1 S 30 35 16 19 1010.3 1012.4 0.0
17/08:00pm -1.7 -10.2 -1.7 100 0.0 S 33 41 18 22 1010.0 1012.1 0.0
17/07:30pm -1.0 -9.2 -1.0 100 0.0 S 32 35 17 19 1010.1 1012.2 0.0
17/07:00pm -1.0 -9.4 -1.0 100 0.0 S 33 39 18 21 1009.9 1012.0 0.0
17/06:30pm -1.1 -9.9 -1.1 100 0.0 S 35 41 19 22 1009.6 1011.8 0.0
17/06:00pm -0.9 -10.0 -0.9 100 0.0 S 37 43 20 23 1009.4 1011.5 0.0
17/05:30pm -0.5 -10.3 -0.5 100 0.0 S 41 46 22 25 1009.1 1011.2 0.0

Other formats

Comma delimited format used in spreadsheet applications
http://www.bom.gov.au/fwo/IDT60801/IDT60801.95952.axf

JavaScript Object Notation format (JSON) in row-major order
http://www.bom.gov.au/fwo/IDT60801/IDT60801.95952.json

Data quality

Most of these data are generated automatically and are frequently updated. Quality checks on data are not normally performed. It is possible for incorrect values to appear. Refer to information at About Latest Weather Observations and please check the disclaimer before using these data.